sensor_id;sensor_type;location;lat;lon;timestamp;pressure;altitude;pressure_sealevel;temperature;humidity
59686;BME280;45554;51.096;16.976;2024-02-21T00:00:01;100859.81;;;5.94;92.53
59686;BME280;45554;51.096;16.976;2024-02-21T00:02:31;100862.23;;;5.95;92.28
59686;BME280;45554;51.096;16.976;2024-02-21T00:04:59;100860.11;;;5.96;92.28
59686;BME280;45554;51.096;16.976;2024-02-21T00:07:28;100859.36;;;5.98;92.05
59686;BME280;45554;51.096;16.976;2024-02-21T00:09:56;100858.81;;;5.98;91.96
59686;BME280;45554;51.096;16.976;2024-02-21T00:12:24;100859.88;;;5.98;92.20
59686;BME280;45554;51.096;16.976;2024-02-21T00:14:52;100856.55;;;5.99;92.24
59686;BME280;45554;51.096;16.976;2024-02-21T00:17:20;100855.33;;;5.98;91.92
59686;BME280;45554;51.096;16.976;2024-02-21T00:19:48;100856.94;;;5.97;91.83
59686;BME280;45554;51.096;16.976;2024-02-21T00:22:17;100850.90;;;5.96;91.62
59686;BME280;45554;51.096;16.976;2024-02-21T00:24:45;100847.40;;;5.97;91.66
59686;BME280;45554;51.096;16.976;2024-02-21T00:27:13;100845.83;;;5.97;91.64
59686;BME280;45554;51.096;16.976;2024-02-21T00:29:44;100847.20;;;5.98;91.93
59686;BME280;45554;51.096;16.976;2024-02-21T00:32:12;100847.20;;;5.97;91.62
59686;BME280;45554;51.096;16.976;2024-02-21T00:34:41;100843.56;;;5.97;91.39
59686;BME280;45554;51.096;16.976;2024-02-21T00:37:09;100840.91;;;5.99;91.78
59686;BME280;45554;51.096;16.976;2024-02-21T00:39:39;100841.36;;;6.01;91.53
59686;BME280;45554;51.096;16.976;2024-02-21T00:42:08;100834.57;;;6.02;91.25
59686;BME280;45554;51.096;16.976;2024-02-21T00:44:37;100832.45;;;6.03;91.50
59686;BME280;45554;51.096;16.976;2024-02-21T00:47:05;100824.02;;;6.00;91.45
59686;BME280;45554;51.096;16.976;2024-02-21T00:49:34;100826.29;;;6.06;91.52
59686;BME280;45554;51.096;16.976;2024-02-21T00:52:03;100827.58;;;6.10;91.17
59686;BME280;45554;51.096;16.976;2024-02-21T00:54:32;100821.12;;;6.11;90.70
59686;BME280;45554;51.096;16.976;2024-02-21T00:57:14;100820.73;;;6.12;90.71
59686;BME280;45554;51.096;16.976;2024-02-21T00:59:45;100823.66;;;6.13;90.88
59686;BME280;45554;51.096;16.976;2024-02-21T01:02:13;100821.89;;;6.14;90.92
59686;BME280;45554;51.096;16.976;2024-02-21T01:04:42;100814.75;;;6.14;91.00
59686;BME280;45554;51.096;16.976;2024-02-21T01:07:10;100814.40;;;6.15;90.85
59686;BME280;45554;51.096;16.976;2024-02-21T01:09:38;100812.29;;;6.15;90.69
59686;BME280;45554;51.096;16.976;2024-02-21T01:12:06;100808.61;;;6.16;90.93
59686;BME280;45554;51.096;16.976;2024-02-21T01:14:34;100805.77;;;6.18;90.61
59686;BME280;45554;51.096;16.976;2024-02-21T01:17:02;100806.98;;;6.18;90.52
59686;BME280;45554;51.096;16.976;2024-02-21T01:19:32;100808.53;;;6.20;90.56
59686;BME280;45554;51.096;16.976;2024-02-21T01:22:00;100802.41;;;6.20;90.64
59686;BME280;45554;51.096;16.976;2024-02-21T01:24:31;100799.25;;;6.21;90.92
59686;BME280;45554;51.096;16.976;2024-02-21T01:27:00;100798.90;;;6.21;91.41
59686;BME280;45554;51.096;16.976;2024-02-21T01:29:28;100794.52;;;6.22;91.61
59686;BME280;45554;51.096;16.976;2024-02-21T01:31:56;100795.59;;;6.21;91.99
59686;BME280;45554;51.096;16.976;2024-02-21T01:34:27;100789.55;;;6.20;92.10
59686;BME280;45554;51.096;16.976;2024-02-21T01:36:59;100788.21;;;6.17;92.47
59686;BME280;45554;51.096;16.976;2024-02-21T01:39:32;100787.44;;;6.14;92.47
59686;BME280;45554;51.096;16.976;2024-02-21T01:42:02;100782.58;;;6.13;92.81
59686;BME280;45554;51.096;16.976;2024-02-21T01:44:32;100776.52;;;6.12;92.80
59686;BME280;45554;51.096;16.976;2024-02-21T01:47:00;100773.09;;;6.11;92.91
59686;BME280;45554;51.096;16.976;2024-02-21T01:49:29;100774.80;;;6.12;92.89
59686;BME280;45554;51.096;16.976;2024-02-21T01:51:58;100775.17;;;6.11;93.03
59686;BME280;45554;51.096;16.976;2024-02-21T01:54:26;100771.86;;;6.11;93.07
59686;BME280;45554;51.096;16.976;2024-02-21T01:56:56;100764.38;;;6.11;92.82
59686;BME280;45554;51.096;16.976;2024-02-21T01:59:25;100761.78;;;6.10;92.78
59686;BME280;45554;51.096;16.976;2024-02-21T02:01:55;100758.34;;;6.09;92.65
59686;BME280;45554;51.096;16.976;2024-02-21T02:04:24;100751.06;;;6.08;92.58
59686;BME280;45554;51.096;16.976;2024-02-21T02:06:54;100747.42;;;6.07;92.89
59686;BME280;45554;51.096;16.976;2024-02-21T02:09:24;100744.30;;;6.08;92.87
59686;BME280;45554;51.096;16.976;2024-02-21T02:11:52;100735.80;;;6.06;92.80
59686;BME280;45554;51.096;16.976;2024-02-21T02:14:20;100735.66;;;6.05;92.72
59686;BME280;45554;51.096;16.976;2024-02-21T02:16:48;100734.66;;;6.04;93.07
59686;BME280;45554;51.096;16.976;2024-02-21T02:19:17;100731.21;;;6.02;92.85
59686;BME280;45554;51.096;16.976;2024-02-21T02:22:11;100731.23;;;6.00;92.96
59686;BME280;45554;51.096;16.976;2024-02-21T02:24:43;100730.76;;;5.99;92.79
59686;BME280;45554;51.096;16.976;2024-02-21T02:27:14;100731.31;;;5.98;93.05
59686;BME280;45554;51.096;16.976;2024-02-21T02:29:42;100725.26;;;5.97;93.17
59686;BME280;45554;51.096;16.976;2024-02-21T02:32:12;100722.70;;;5.95;92.72
59686;BME280;45554;51.096;16.976;2024-02-21T02:34:45;100720.84;;;5.93;93.20
59686;BME280;45554;51.096;16.976;2024-02-21T02:37:13;100722.10;;;5.91;93.26
59686;BME280;45554;51.096;16.976;2024-02-21T02:39:43;100719.20;;;5.89;92.95
59686;BME280;45554;51.096;16.976;2024-02-21T02:42:12;100713.70;;;5.87;92.96
59686;BME280;45554;51.096;16.976;2024-02-21T02:44:40;100710.86;;;5.83;92.79
59686;BME280;45554;51.096;16.976;2024-02-21T02:47:08;100712.48;;;5.81;92.92
59686;BME280;45554;51.096;16.976;2024-02-21T02:49:37;100711.84;;;5.79;93.18
59686;BME280;45554;51.096;16.976;2024-02-21T02:52:05;100711.01;;;5.77;93.31
59686;BME280;45554;51.096;16.976;2024-02-21T02:54:36;100705.17;;;5.75;93.00
59686;BME280;45554;51.096;16.976;2024-02-21T02:57:06;100706.44;;;5.73;93.03
59686;BME280;45554;51.096;16.976;2024-02-21T02:59:35;100703.17;;;5.72;93.22
59686;BME280;45554;51.096;16.976;2024-02-21T03:02:03;100704.77;;;5.70;93.24
59686;BME280;45554;51.096;16.976;2024-02-21T03:04:32;100705.09;;;5.71;93.20
59686;BME280;45554;51.096;16.976;2024-02-21T03:07:01;100705.25;;;5.72;93.37
59686;BME280;45554;51.096;16.976;2024-02-21T03:09:29;100701.77;;;5.72;93.14
59686;BME280;45554;51.096;16.976;2024-02-21T03:12:01;100701.73;;;5.73;93.26
59686;BME280;45554;51.096;16.976;2024-02-21T03:14:32;100700.98;;;5.76;93.14
59686;BME280;45554;51.096;16.976;2024-02-21T03:17:01;100698.48;;;5.77;92.72
59686;BME280;45554;51.096;16.976;2024-02-21T03:19:30;100693.42;;;5.78;92.76
59686;BME280;45554;51.096;16.976;2024-02-21T03:21:58;100696.38;;;5.79;92.68
59686;BME280;45554;51.096;16.976;2024-02-21T03:24:27;100691.15;;;5.79;92.71
59686;BME280;45554;51.096;16.976;2024-02-21T03:26:55;100691.31;;;5.79;92.90
59686;BME280;45554;51.096;16.976;2024-02-21T03:29:23;100688.30;;;5.81;92.58
59686;BME280;45554;51.096;16.976;2024-02-21T03:31:51;100686.88;;;5.82;92.44
59686;BME280;45554;51.096;16.976;2024-02-21T03:34:19;100681.77;;;5.84;92.73
59686;BME280;45554;51.096;16.976;2024-02-21T03:36:50;100686.23;;;5.86;92.39
59686;BME280;45554;51.096;16.976;2024-02-21T03:39:18;100684.98;;;5.88;92.40
59686;BME280;45554;51.096;16.976;2024-02-21T03:41:46;100682.66;;;5.89;92.44
59686;BME280;45554;51.096;16.976;2024-02-21T03:44:14;100682.11;;;5.90;92.42
59686;BME280;45554;51.096;16.976;2024-02-21T03:46:42;100677.39;;;5.91;92.31
59686;BME280;45554;51.096;16.976;2024-02-21T03:49:10;100677.39;;;5.91;92.25
59686;BME280;45554;51.096;16.976;2024-02-21T03:51:39;100673.20;;;5.92;92.19
59686;BME280;45554;51.096;16.976;2024-02-21T03:54:07;100674.76;;;5.92;92.26
59686;BME280;45554;51.096;16.976;2024-02-21T03:56:39;100674.71;;;5.94;92.13
59686;BME280;45554;51.096;16.976;2024-02-21T03:59:10;100673.66;;;5.94;91.92
59686;BME280;45554;51.096;16.976;2024-02-21T04:01:38;100674.17;;;5.94;91.82
59686;BME280;45554;51.096;16.976;2024-02-21T04:04:09;100675.55;;;5.95;91.78
59686;BME280;45554;51.096;16.976;2024-02-21T04:06:45;100671.02;;;5.95;91.61
59686;BME280;45554;51.096;16.976;2024-02-21T04:09:14;100671.02;;;5.95;91.44
59686;BME280;45554;51.096;16.976;2024-02-21T04:11:42;100669.27;;;5.96;91.67
59686;BME280;45554;51.096;16.976;2024-02-21T04:14:11;100666.98;;;5.97;91.56
59686;BME280;45554;51.096;16.976;2024-02-21T04:16:39;100660.86;;;5.97;91.17
59686;BME280;45554;51.096;16.976;2024-02-21T04:19:08;100658.05;;;5.98;91.34
59686;BME280;45554;51.096;16.976;2024-02-21T04:21:37;100656.13;;;5.98;91.40
59686;BME280;45554;51.096;16.976;2024-02-21T04:24:08;100650.73;;;5.98;91.02
59686;BME280;45554;51.096;16.976;2024-02-21T04:26:38;100647.95;;;5.99;91.02
59686;BME280;45554;51.096;16.976;2024-02-21T04:29:06;100645.88;;;5.98;91.10
59686;BME280;45554;51.096;16.976;2024-02-21T04:31:34;100644.68;;;5.97;90.78
59686;BME280;45554;51.096;16.976;2024-02-21T04:34:02;100643.13;;;5.97;90.67
59686;BME280;45554;51.096;16.976;2024-02-21T04:36:30;100642.62;;;5.97;90.58
59686;BME280;45554;51.096;16.976;2024-02-21T04:38:59;100639.14;;;5.97;90.47
59686;BME280;45554;51.096;16.976;2024-02-21T04:41:27;100638.59;;;5.97;90.47
59686;BME280;45554;51.096;16.976;2024-02-21T04:43:55;100635.61;;;5.98;90.52
59686;BME280;45554;51.096;16.976;2024-02-21T04:46:23;100632.15;;;5.97;90.15
59686;BME280;45554;51.096;16.976;2024-02-21T04:48:52;100631.81;;;5.97;90.11
59686;BME280;45554;51.096;16.976;2024-02-21T04:51:20;100633.38;;;5.97;90.06
59686;BME280;45554;51.096;16.976;2024-02-21T04:53:48;100631.33;;;5.96;90.01
59686;BME280;45554;51.096;16.976;2024-02-21T04:56:16;100630.47;;;5.96;89.84
59686;BME280;45554;51.096;16.976;2024-02-21T04:58:44;100633.23;;;5.96;89.86
59686;BME280;45554;51.096;16.976;2024-02-21T05:01:12;100630.95;;;5.97;89.93
59686;BME280;45554;51.096;16.976;2024-02-21T05:03:40;100626.56;;;5.98;89.72
59686;BME280;45554;51.096;16.976;2024-02-21T05:06:08;100623.42;;;5.98;89.70
59686;BME280;45554;51.096;16.976;2024-02-21T05:08:36;100615.23;;;5.99;89.48
59686;BME280;45554;51.096;16.976;2024-02-21T05:11:04;100614.92;;;5.97;89.62
59686;BME280;45554;51.096;16.976;2024-02-21T05:13:35;100614.88;;;5.99;89.43
59686;BME280;45554;51.096;16.976;2024-02-21T05:16:04;100614.02;;;5.99;89.49
59686;BME280;45554;51.096;16.976;2024-02-21T05:18:34;100607.63;;;5.97;89.48
59686;BME280;45554;51.096;16.976;2024-02-21T05:21:03;100612.54;;;6.03;89.50
59686;BME280;45554;51.096;16.976;2024-02-21T05:23:30;100611.60;;;6.05;89.45
59686;BME280;45554;51.096;16.976;2024-02-21T05:26:00;100612.05;;;6.07;89.39
59686;BME280;45554;51.096;16.976;2024-02-21T05:28:28;100609.73;;;6.09;89.13
59686;BME280;45554;51.096;16.976;2024-02-21T05:30:56;100608.46;;;6.10;89.13
59686;BME280;45554;51.096;16.976;2024-02-21T05:33:25;100603.42;;;6.10;88.80
59686;BME280;45554;51.096;16.976;2024-02-21T05:35:53;100605.17;;;6.10;88.43
59686;BME280;45554;51.096;16.976;2024-02-21T05:38:24;100607.09;;;6.10;88.47
59686;BME280;45554;51.096;16.976;2024-02-21T05:40:53;100603.09;;;6.10;88.37
59686;BME280;45554;51.096;16.976;2024-02-21T05:43:24;100601.35;;;6.09;88.46
59686;BME280;45554;51.096;16.976;2024-02-21T05:45:52;100600.11;;;6.11;88.51
59686;BME280;45554;51.096;16.976;2024-02-21T05:48:22;100600.23;;;6.12;88.52
59686;BME280;45554;51.096;16.976;2024-02-21T05:50:51;100599.36;;;6.12;88.38
59686;BME280;45554;51.096;16.976;2024-02-21T05:53:19;100594.21;;;6.16;88.38
59686;BME280;45554;51.096;16.976;2024-02-21T05:55:47;100593.79;;;6.18;88.07
59686;BME280;45554;51.096;16.976;2024-02-21T05:58:15;100587.61;;;6.21;88.15
59686;BME280;45554;51.096;16.976;2024-02-21T06:00:43;100590.30;;;6.24;87.91
59686;BME280;45554;51.096;16.976;2024-02-21T06:03:12;100588.11;;;6.27;88.15
59686;BME280;45554;51.096;16.976;2024-02-21T06:05:40;100591.02;;;6.29;88.00
59686;BME280;45554;51.096;16.976;2024-02-21T06:08:08;100591.54;;;6.29;87.62
59686;BME280;45554;51.096;16.976;2024-02-21T06:10:37;100592.41;;;6.28;87.69
59686;BME280;45554;51.096;16.976;2024-02-21T06:13:05;100589.05;;;6.30;87.64
59686;BME280;45554;51.096;16.976;2024-02-21T06:15:33;100593.73;;;6.31;87.43
59686;BME280;45554;51.096;16.976;2024-02-21T06:18:02;100591.03;;;6.34;87.38
59686;BME280;45554;51.096;16.976;2024-02-21T06:20:33;100591.34;;;6.35;87.30
59686;BME280;45554;51.096;16.976;2024-02-21T06:23:06;100592.13;;;6.37;87.20
59686;BME280;45554;51.096;16.976;2024-02-21T06:25:35;100592.59;;;6.39;87.28
59686;BME280;45554;51.096;16.976;2024-02-21T06:28:03;100590.08;;;6.42;86.94
59686;BME280;45554;51.096;16.976;2024-02-21T06:30:31;100589.33;;;6.43;87.01
59686;BME280;45554;51.096;16.976;2024-02-21T06:33:00;100583.70;;;6.45;86.93
59686;BME280;45554;51.096;16.976;2024-02-21T06:35:28;100576.11;;;6.43;86.67
59686;BME280;45554;51.096;16.976;2024-02-21T06:37:57;100583.86;;;6.45;86.71
59686;BME280;45554;51.096;16.976;2024-02-21T06:40:25;100582.25;;;6.47;86.69
59686;BME280;45554;51.096;16.976;2024-02-21T06:42:54;100582.56;;;6.48;86.75
59686;BME280;45554;51.096;16.976;2024-02-21T06:45:22;100574.12;;;6.46;86.54
59686;BME280;45554;51.096;16.976;2024-02-21T06:47:51;100583.77;;;6.54;86.28
59686;BME280;45554;51.096;16.976;2024-02-21T06:50:20;100586.63;;;6.56;86.14
59686;BME280;45554;51.096;16.976;2024-02-21T06:52:49;100588.83;;;6.59;86.04
59686;BME280;45554;51.096;16.976;2024-02-21T06:55:17;100588.23;;;6.61;85.77
59686;BME280;45554;51.096;16.976;2024-02-21T07:02:21;100580.87;;;6.73;85.57
59686;BME280;45554;51.096;16.976;2024-02-21T07:05:08;100580.86;;;6.78;85.59
59686;BME280;45554;51.096;16.976;2024-02-21T07:08:01;100579.94;;;6.84;85.39
59686;BME280;45554;51.096;16.976;2024-02-21T07:10:31;100580.59;;;6.91;85.57
59686;BME280;45554;51.096;16.976;2024-02-21T07:13:01;100581.41;;;6.97;85.77
59686;BME280;45554;51.096;16.976;2024-02-21T07:19:23;100580.41;;;7.16;85.26
59686;BME280;45554;51.096;16.976;2024-02-21T07:22:39;100578.57;;;7.23;85.20
59686;BME280;45554;51.096;16.976;2024-02-21T07:25:08;100577.38;;;7.28;85.04
59686;BME280;45554;51.096;16.976;2024-02-21T07:27:39;100577.61;;;7.31;84.93
59686;BME280;45554;51.096;16.976;2024-02-21T07:30:26;100577.30;;;7.30;84.89
59686;BME280;45554;51.096;16.976;2024-02-21T07:32:55;100574.23;;;7.28;85.09
59686;BME280;45554;51.096;16.976;2024-02-21T07:35:29;100571.86;;;7.31;84.95
59686;BME280;45554;51.096;16.976;2024-02-21T07:38:17;100571.27;;;7.32;85.11
59686;BME280;45554;51.096;16.976;2024-02-21T07:40:55;100569.73;;;7.36;85.30
59686;BME280;45554;51.096;16.976;2024-02-21T07:43:35;100565.33;;;7.43;85.08
59686;BME280;45554;51.096;16.976;2024-02-21T07:46:30;100564.58;;;7.48;84.84
59686;BME280;45554;51.096;16.976;2024-02-21T07:53:36;100560.46;;;7.61;84.88
59686;BME280;45554;51.096;16.976;2024-02-21T08:01:22;100543.75;;;7.69;84.70
59686;BME280;45554;51.096;16.976;2024-02-21T08:03:56;100546.89;;;7.73;84.23
59686;BME280;45554;51.096;16.976;2024-02-21T08:06:52;100543.33;;;7.76;83.44
59686;BME280;45554;51.096;16.976;2024-02-21T08:10:15;100543.10;;;7.76;83.13
59686;BME280;45554;51.096;16.976;2024-02-21T08:13:04;100538.48;;;7.79;83.52
59686;BME280;45554;51.096;16.976;2024-02-21T08:15:35;100539.81;;;7.80;83.16
59686;BME280;45554;51.096;16.976;2024-02-21T08:18:17;100537.30;;;7.82;83.26
59686;BME280;45554;51.096;16.976;2024-02-21T08:21:01;100535.64;;;7.84;82.97
59686;BME280;45554;51.096;16.976;2024-02-21T08:23:36;100534.88;;;7.86;83.13
59686;BME280;45554;51.096;16.976;2024-02-21T08:26:46;100527.97;;;7.93;83.32
59686;BME280;45554;51.096;16.976;2024-02-21T08:38:26;100527.77;;;8.24;82.46
59686;BME280;45554;51.096;16.976;2024-02-21T09:04:55;100516.58;;;8.59;81.38
59686;BME280;45554;51.096;16.976;2024-02-21T09:17:52;100504.59;;;8.61;80.93
59686;BME280;45554;51.096;16.976;2024-02-21T09:21:37;100500.98;;;8.64;80.94
59686;BME280;45554;51.096;16.976;2024-02-21T09:25:02;100502.40;;;8.67;80.69
59686;BME280;45554;51.096;16.976;2024-02-21T09:28:09;100506.80;;;8.67;80.42
59686;BME280;45554;51.096;16.976;2024-02-21T09:35:36;100501.00;;;8.68;80.19
59686;BME280;45554;51.096;16.976;2024-02-21T09:43:38;100497.27;;;8.81;79.71
59686;BME280;45554;51.096;16.976;2024-02-21T09:46:29;100493.75;;;8.89;79.78
59686;BME280;45554;51.096;16.976;2024-02-21T09:49:47;100481.10;;;9.11;79.16
59686;BME280;45554;51.096;16.976;2024-02-21T09:52:35;100475.73;;;9.25;78.74
59686;BME280;45554;51.096;16.976;2024-02-21T09:55:21;100483.08;;;9.36;78.53
59686;BME280;45554;51.096;16.976;2024-02-21T09:58:14;100486.08;;;9.43;78.61
59686;BME280;45554;51.096;16.976;2024-02-21T10:01:39;100489.16;;;9.48;78.41
59686;BME280;45554;51.096;16.976;2024-02-21T10:04:23;100494.61;;;9.48;77.85
59686;BME280;45554;51.096;16.976;2024-02-21T10:07:29;100491.64;;;9.44;77.49
59686;BME280;45554;51.096;16.976;2024-02-21T10:10:47;100492.40;;;9.35;76.44
59686;BME280;45554;51.096;16.976;2024-02-21T10:17:33;100493.73;;;9.21;76.79
59686;BME280;45554;51.096;16.976;2024-02-21T10:20:18;100498.64;;;9.13;76.82
59686;BME280;45554;51.096;16.976;2024-02-21T10:23:49;100495.95;;;9.03;76.25
59686;BME280;45554;51.096;16.976;2024-02-21T10:26:47;100493.61;;;8.97;77.07
59686;BME280;45554;51.096;16.976;2024-02-21T10:29:39;100497.14;;;8.92;76.89
59686;BME280;45554;51.096;16.976;2024-02-21T10:33:08;100503.55;;;8.89;77.04
59686;BME280;45554;51.096;16.976;2024-02-21T10:36:05;100502.05;;;8.87;77.25
59686;BME280;45554;51.096;16.976;2024-02-21T10:39:47;100495.73;;;8.88;77.47
59686;BME280;45554;51.096;16.976;2024-02-21T10:43:24;100488.95;;;8.87;78.14
59686;BME280;45554;51.096;16.976;2024-02-21T10:51:15;100470.84;;;8.98;78.00
59686;BME280;45554;51.096;16.976;2024-02-21T10:54:52;100463.98;;;9.06;77.95
59686;BME280;45554;51.096;16.976;2024-02-21T11:02:35;100442.38;;;9.24;77.34
59686;BME280;45554;51.096;16.976;2024-02-21T11:05:49;100444.61;;;9.28;76.94
59686;BME280;45554;51.096;16.976;2024-02-21T11:09:31;100437.61;;;9.32;76.99
59686;BME280;45554;51.096;16.976;2024-02-21T11:12:22;100436.40;;;9.32;76.51
59686;BME280;45554;51.096;16.976;2024-02-21T11:20:13;100427.93;;;9.41;76.84
59686;BME280;45554;51.096;16.976;2024-02-21T11:27:21;100423.89;;;9.52;76.26
59686;BME280;45554;51.096;16.976;2024-02-21T11:30:47;100417.70;;;9.65;76.71
59686;BME280;45554;51.096;16.976;2024-02-21T11:34:28;100400.71;;;9.79;76.70
59686;BME280;45554;51.096;16.976;2024-02-21T13:15:32;100292.95;;;10.02;71.09
59686;BME280;45554;51.096;16.976;2024-02-21T13:19:18;100282.90;;;9.97;71.33
59686;BME280;45554;51.096;16.976;2024-02-21T13:35:31;100249.85;;;10.09;72.34
59686;BME280;45554;51.096;16.976;2024-02-21T13:38:23;100246.75;;;10.11;71.95
59686;BME280;45554;51.096;16.976;2024-02-21T13:46:04;100240.23;;;10.29;71.96
59686;BME280;45554;51.096;16.976;2024-02-21T13:49:06;100240.06;;;10.35;71.72
59686;BME280;45554;51.096;16.976;2024-02-21T13:58:58;100230.31;;;10.44;70.82
59686;BME280;45554;51.096;16.976;2024-02-21T14:33:04;100198.16;;;10.38;70.08
59686;BME280;45554;51.096;16.976;2024-02-21T14:35:45;100193.11;;;10.38;69.64
59686;BME280;45554;51.096;16.976;2024-02-21T14:39:16;100184.55;;;10.34;69.69
59686;BME280;45554;51.096;16.976;2024-02-21T15:00:21;100178.40;;;10.22;70.32
59686;BME280;45554;51.096;16.976;2024-02-21T15:03:28;100168.77;;;10.22;70.40
59686;BME280;45554;51.096;16.976;2024-02-21T15:06:14;100165.27;;;10.22;70.39
59686;BME280;45554;51.096;16.976;2024-02-21T15:09:51;100167.36;;;10.22;70.38
59686;BME280;45554;51.096;16.976;2024-02-21T15:12:42;100149.38;;;10.18;70.39
59686;BME280;45554;51.096;16.976;2024-02-21T15:15:20;100149.16;;;10.22;70.28
59686;BME280;45554;51.096;16.976;2024-02-21T15:18:22;100150.98;;;10.21;70.16
59686;BME280;45554;51.096;16.976;2024-02-21T15:21:28;100147.42;;;10.19;70.20
59686;BME280;45554;51.096;16.976;2024-02-21T15:27:03;100150.73;;;10.15;70.39
59686;BME280;45554;51.096;16.976;2024-02-21T15:30:01;100145.52;;;10.15;70.66
59686;BME280;45554;51.096;16.976;2024-02-21T15:32:54;100142.93;;;10.14;70.58
59686;BME280;45554;51.096;16.976;2024-02-21T15:36:02;100139.45;;;10.14;70.59
59686;BME280;45554;51.096;16.976;2024-02-21T15:38:48;100126.81;;;10.08;70.70
59686;BME280;45554;51.096;16.976;2024-02-21T15:41:43;100125.09;;;10.07;70.79
59686;BME280;45554;51.096;16.976;2024-02-21T15:44:18;100131.78;;;10.10;70.89
59686;BME280;45554;51.096;16.976;2024-02-21T15:47:08;100128.80;;;10.04;70.73
59686;BME280;45554;51.096;16.976;2024-02-21T15:49:38;100127.85;;;10.02;70.91
59686;BME280;45554;51.096;16.976;2024-02-21T15:52:14;100127.70;;;9.98;71.12
59686;BME280;45554;51.096;16.976;2024-02-21T15:55:02;100129.54;;;9.93;71.10
59686;BME280;45554;51.096;16.976;2024-02-21T16:01:59;100128.23;;;9.82;71.36
59686;BME280;45554;51.096;16.976;2024-02-21T16:04:41;100125.90;;;9.76;71.35
59686;BME280;45554;51.096;16.976;2024-02-21T16:07:13;100123.48;;;9.73;71.78
59686;BME280;45554;51.096;16.976;2024-02-21T16:09:42;100123.41;;;9.70;71.83
59686;BME280;45554;51.096;16.976;2024-02-21T16:12:27;100121.81;;;9.68;71.98
59686;BME280;45554;51.096;16.976;2024-02-21T16:15:04;100116.33;;;9.66;72.08
59686;BME280;45554;51.096;16.976;2024-02-21T16:17:42;100119.91;;;9.64;72.20
59686;BME280;45554;51.096;16.976;2024-02-21T16:20:16;100121.33;;;9.60;72.00
59686;BME280;45554;51.096;16.976;2024-02-21T16:23:09;100124.45;;;9.58;72.24
59686;BME280;45554;51.096;16.976;2024-02-21T16:25:50;100122.48;;;9.55;72.45
59686;BME280;45554;51.096;16.976;2024-02-21T16:28:29;100124.02;;;9.52;72.35
59686;BME280;45554;51.096;16.976;2024-02-21T16:31:03;100121.03;;;9.49;72.40
59686;BME280;45554;51.096;16.976;2024-02-21T16:33:42;100123.84;;;9.46;72.27
59686;BME280;45554;51.096;16.976;2024-02-21T16:36:24;100119.08;;;9.40;72.31
59686;BME280;45554;51.096;16.976;2024-02-21T16:39:02;100119.15;;;9.35;72.59
59686;BME280;45554;51.096;16.976;2024-02-21T16:41:53;100119.10;;;9.33;72.55
59686;BME280;45554;51.096;16.976;2024-02-21T16:44:33;100108.88;;;9.21;72.53
59686;BME280;45554;51.096;16.976;2024-02-21T16:47:17;100117.48;;;9.20;72.63
59686;BME280;45554;51.096;16.976;2024-02-21T16:49:46;100108.57;;;9.13;72.87
59686;BME280;45554;51.096;16.976;2024-02-21T16:55:45;100108.02;;;8.93;73.02
59686;BME280;45554;51.096;16.976;2024-02-21T16:58:27;100108.00;;;8.83;73.24
59686;BME280;45554;51.096;16.976;2024-02-21T17:01:13;100107.58;;;8.74;73.39
59686;BME280;45554;51.096;16.976;2024-02-21T17:03:50;100103.14;;;8.64;73.64
59686;BME280;45554;51.096;16.976;2024-02-21T17:06:22;100099.66;;;8.57;73.83
59686;BME280;45554;51.096;16.976;2024-02-21T17:08:57;100094.05;;;8.50;73.85
59686;BME280;45554;51.096;16.976;2024-02-21T17:11:27;100088.80;;;8.43;74.13
59686;BME280;45554;51.096;16.976;2024-02-21T17:13:59;100087.02;;;8.36;74.08
59686;BME280;45554;51.096;16.976;2024-02-21T17:16:29;100089.96;;;8.30;74.29
59686;BME280;45554;51.096;16.976;2024-02-21T17:19:01;100084.42;;;8.22;74.23
59686;BME280;45554;51.096;16.976;2024-02-21T17:21:34;100079.69;;;8.15;74.54
59686;BME280;45554;51.096;16.976;2024-02-21T17:24:08;100083.14;;;8.08;74.54
59686;BME280;45554;51.096;16.976;2024-02-21T17:26:42;100078.42;;;8.01;74.84
59686;BME280;45554;51.096;16.976;2024-02-21T17:29:21;100060.61;;;7.90;74.80
59686;BME280;45554;51.096;16.976;2024-02-21T17:31:56;100060.92;;;7.91;74.93
59686;BME280;45554;51.096;16.976;2024-02-21T17:34:32;100059.98;;;7.85;74.98
59686;BME280;45554;51.096;16.976;2024-02-21T17:38:12;100057.29;;;7.79;75.16
59686;BME280;45554;51.096;16.976;2024-02-21T17:40:54;100051.39;;;7.75;75.18
59686;BME280;45554;51.096;16.976;2024-02-21T17:43:25;100045.99;;;7.70;75.34
59686;BME280;45554;51.096;16.976;2024-02-21T17:46:06;100043.60;;;7.66;75.42
59686;BME280;45554;51.096;16.976;2024-02-21T17:48:35;100038.11;;;7.60;75.57
59686;BME280;45554;51.096;16.976;2024-02-21T17:51:04;100033.64;;;7.55;75.84
59686;BME280;45554;51.096;16.976;2024-02-21T17:53:33;100027.58;;;7.50;76.06
59686;BME280;45554;51.096;16.976;2024-02-21T17:56:03;100023.55;;;7.47;76.13
59686;BME280;45554;51.096;16.976;2024-02-21T17:58:34;100017.95;;;7.43;76.32
59686;BME280;45554;51.096;16.976;2024-02-21T18:01:02;100010.48;;;7.38;76.50
59686;BME280;45554;51.096;16.976;2024-02-21T18:03:31;100008.33;;;7.32;76.42
59686;BME280;45554;51.096;16.976;2024-02-21T18:06:10;100010.80;;;7.28;76.75
59686;BME280;45554;51.096;16.976;2024-02-21T18:08:45;100006.37;;;7.22;76.87
59686;BME280;45554;51.096;16.976;2024-02-21T18:11:14;99998.34;;;7.18;77.02
59686;BME280;45554;51.096;16.976;2024-02-21T18:13:45;99986.77;;;7.08;77.31
59686;BME280;45554;51.096;16.976;2024-02-21T18:16:16;99991.64;;;7.12;77.34
59686;BME280;45554;51.096;16.976;2024-02-21T18:18:44;99991.13;;;7.08;77.50
59686;BME280;45554;51.096;16.976;2024-02-21T18:21:13;99982.84;;;7.02;77.59
59686;BME280;45554;51.096;16.976;2024-02-21T18:23:41;99985.92;;;6.99;77.84